sensor_id;sensor_type;location;lat;lon;timestamp;P1;durP1;ratioP1;P2;durP2;ratioP2
3547;SDS011;1788;49.400;11.092;2024-01-15T00:01:55;50.90;;;18.43;;
3547;SDS011;1788;49.400;11.092;2024-01-15T00:04:22;42.27;;;17.00;;
3547;SDS011;1788;49.400;11.092;2024-01-15T00:06:49;27.53;;;13.97;;
3547;SDS011;1788;49.400;11.092;2024-01-15T00:09:16;43.83;;;16.83;;
3547;SDS011;1788;49.400;11.092;2024-01-15T00:11:44;41.33;;;15.77;;
3547;SDS011;1788;49.400;11.092;2024-01-15T00:14:11;40.20;;;17.37;;
3547;SDS011;1788;49.400;11.092;2024-01-15T00:16:37;37.13;;;16.30;;
3547;SDS011;1788;49.400;11.092;2024-01-15T00:19:04;41.87;;;15.97;;
3547;SDS011;1788;49.400;11.092;2024-01-15T00:21:30;42.73;;;16.27;;
3547;SDS011;1788;49.400;11.092;2024-01-15T00:23:57;47.70;;;17.77;;
3547;SDS011;1788;49.400;11.092;2024-01-15T00:26:24;42.20;;;16.20;;
3547;SDS011;1788;49.400;11.092;2024-01-15T00:28:50;49.00;;;21.30;;
3547;SDS011;1788;49.400;11.092;2024-01-15T00:31:17;48.97;;;18.30;;
3547;SDS011;1788;49.400;11.092;2024-01-15T00:33:43;41.93;;;17.80;;
3547;SDS011;1788;49.400;11.092;2024-01-15T00:36:11;50.40;;;18.30;;
3547;SDS011;1788;49.400;11.092;2024-01-15T00:38:39;40.90;;;15.70;;
3547;SDS011;1788;49.400;11.092;2024-01-15T00:41:06;44.70;;;15.57;;
3547;SDS011;1788;49.400;11.092;2024-01-15T00:43:33;41.17;;;15.63;;
3547;SDS011;1788;49.400;11.092;2024-01-15T00:46:01;50.13;;;16.13;;
3547;SDS011;1788;49.400;11.092;2024-01-15T00:48:27;46.00;;;17.77;;
3547;SDS011;1788;49.400;11.092;2024-01-15T00:50:53;41.00;;;15.93;;
3547;SDS011;1788;49.400;11.092;2024-01-15T00:53:20;38.67;;;14.93;;
3547;SDS011;1788;49.400;11.092;2024-01-15T00:55:47;42.37;;;15.40;;
3547;SDS011;1788;49.400;11.092;2024-01-15T00:58:13;42.50;;;15.93;;
3547;SDS011;1788;49.400;11.092;2024-01-15T01:00:40;43.10;;;14.80;;
3547;SDS011;1788;49.400;11.092;2024-01-15T01:03:06;43.33;;;17.20;;
3547;SDS011;1788;49.400;11.092;2024-01-15T01:05:33;38.77;;;14.50;;
3547;SDS011;1788;49.400;11.092;2024-01-15T01:08:00;35.77;;;14.90;;
3547;SDS011;1788;49.400;11.092;2024-01-15T01:10:27;36.27;;;13.20;;
3547;SDS011;1788;49.400;11.092;2024-01-15T01:12:54;41.37;;;15.50;;
3547;SDS011;1788;49.400;11.092;2024-01-15T01:15:23;38.83;;;16.50;;
3547;SDS011;1788;49.400;11.092;2024-01-15T01:17:51;40.17;;;13.90;;
3547;SDS011;1788;49.400;11.092;2024-01-15T01:20:18;32.07;;;14.73;;
3547;SDS011;1788;49.400;11.092;2024-01-15T01:22:45;39.17;;;16.77;;
3547;SDS011;1788;49.400;11.092;2024-01-15T01:25:11;38.43;;;15.23;;
3547;SDS011;1788;49.400;11.092;2024-01-15T01:27:38;32.33;;;13.40;;
3547;SDS011;1788;49.400;11.092;2024-01-15T01:30:04;35.20;;;13.40;;
3547;SDS011;1788;49.400;11.092;2024-01-15T01:32:31;43.90;;;16.30;;
3547;SDS011;1788;49.400;11.092;2024-01-15T01:34:58;41.07;;;17.60;;
3547;SDS011;1788;49.400;11.092;2024-01-15T01:37:25;34.60;;;14.93;;
3547;SDS011;1788;49.400;11.092;2024-01-15T01:39:52;40.17;;;15.13;;
3547;SDS011;1788;49.400;11.092;2024-01-15T01:42:18;36.60;;;14.67;;
3547;SDS011;1788;49.400;11.092;2024-01-15T01:44:46;39.37;;;16.30;;
3547;SDS011;1788;49.400;11.092;2024-01-15T01:47:12;33.60;;;14.50;;
3547;SDS011;1788;49.400;11.092;2024-01-15T01:49:39;37.80;;;14.37;;
3547;SDS011;1788;49.400;11.092;2024-01-15T01:52:06;36.30;;;14.83;;
3547;SDS011;1788;49.400;11.092;2024-01-15T01:54:32;40.37;;;15.90;;
3547;SDS011;1788;49.400;11.092;2024-01-15T01:57:00;30.80;;;13.57;;
3547;SDS011;1788;49.400;11.092;2024-01-15T01:59:26;38.23;;;13.70;;
3547;SDS011;1788;49.400;11.092;2024-01-15T02:01:54;40.90;;;13.60;;
3547;SDS011;1788;49.400;11.092;2024-01-15T02:04:21;33.93;;;13.87;;
3547;SDS011;1788;49.400;11.092;2024-01-15T02:06:47;35.27;;;14.33;;
3547;SDS011;1788;49.400;11.092;2024-01-15T02:09:13;31.57;;;14.33;;
3547;SDS011;1788;49.400;11.092;2024-01-15T02:11:41;40.33;;;14.07;;
3547;SDS011;1788;49.400;11.092;2024-01-15T02:14:08;31.83;;;12.80;;
3547;SDS011;1788;49.400;11.092;2024-01-15T02:16:34;37.57;;;14.43;;
3547;SDS011;1788;49.400;11.092;2024-01-15T02:19:02;35.80;;;13.17;;
3547;SDS011;1788;49.400;11.092;2024-01-15T02:21:28;30.73;;;12.57;;
3547;SDS011;1788;49.400;11.092;2024-01-15T02:23:55;34.70;;;14.60;;
3547;SDS011;1788;49.400;11.092;2024-01-15T02:26:22;33.27;;;12.40;;
3547;SDS011;1788;49.400;11.092;2024-01-15T02:28:49;32.07;;;12.70;;
3547;SDS011;1788;49.400;11.092;2024-01-15T02:31:16;34.93;;;13.70;;
3547;SDS011;1788;49.400;11.092;2024-01-15T02:33:43;26.83;;;11.50;;
3547;SDS011;1788;49.400;11.092;2024-01-15T02:36:10;28.93;;;11.40;;
3547;SDS011;1788;49.400;11.092;2024-01-15T02:38:37;28.13;;;11.80;;
3547;SDS011;1788;49.400;11.092;2024-01-15T02:41:03;23.80;;;9.80;;
3547;SDS011;1788;49.400;11.092;2024-01-15T02:43:30;25.40;;;11.07;;
3547;SDS011;1788;49.400;11.092;2024-01-15T02:45:56;25.20;;;11.57;;
3547;SDS011;1788;49.400;11.092;2024-01-15T02:48:24;34.53;;;12.67;;
3547;SDS011;1788;49.400;11.092;2024-01-15T02:50:50;24.77;;;11.37;;
3547;SDS011;1788;49.400;11.092;2024-01-15T02:53:17;25.17;;;11.73;;
3547;SDS011;1788;49.400;11.092;2024-01-15T02:55:44;21.53;;;8.83;;
3547;SDS011;1788;49.400;11.092;2024-01-15T02:58:11;32.63;;;12.40;;
3547;SDS011;1788;49.400;11.092;2024-01-15T03:00:38;29.60;;;12.07;;
3547;SDS011;1788;49.400;11.092;2024-01-15T03:03:04;30.07;;;11.37;;
3547;SDS011;1788;49.400;11.092;2024-01-15T03:05:32;31.67;;;13.73;;
3547;SDS011;1788;49.400;11.092;2024-01-15T03:07:58;30.57;;;12.23;;
3547;SDS011;1788;49.400;11.092;2024-01-15T03:10:25;25.30;;;10.83;;
3547;SDS011;1788;49.400;11.092;2024-01-15T03:12:51;32.37;;;11.33;;
3547;SDS011;1788;49.400;11.092;2024-01-15T03:15:18;27.90;;;11.93;;
3547;SDS011;1788;49.400;11.092;2024-01-15T03:17:45;27.23;;;10.93;;
3547;SDS011;1788;49.400;11.092;2024-01-15T03:20:12;29.23;;;12.37;;
3547;SDS011;1788;49.400;11.092;2024-01-15T03:22:39;22.77;;;9.77;;
3547;SDS011;1788;49.400;11.092;2024-01-15T03:25:06;29.40;;;11.23;;
3547;SDS011;1788;49.400;11.092;2024-01-15T03:27:32;24.73;;;12.00;;
3547;SDS011;1788;49.400;11.092;2024-01-15T03:29:59;26.37;;;9.47;;
3547;SDS011;1788;49.400;11.092;2024-01-15T03:32:26;23.13;;;10.63;;
3547;SDS011;1788;49.400;11.092;2024-01-15T03:34:53;24.23;;;10.10;;
3547;SDS011;1788;49.400;11.092;2024-01-15T03:37:20;29.20;;;10.23;;
3547;SDS011;1788;49.400;11.092;2024-01-15T03:39:47;16.77;;;7.97;;
3547;SDS011;1788;49.400;11.092;2024-01-15T03:42:14;14.47;;;7.37;;
3547;SDS011;1788;49.400;11.092;2024-01-15T03:44:41;27.33;;;10.53;;
3547;SDS011;1788;49.400;11.092;2024-01-15T03:47:08;22.33;;;9.07;;
3547;SDS011;1788;49.400;11.092;2024-01-15T03:49:34;21.03;;;9.40;;
3547;SDS011;1788;49.400;11.092;2024-01-15T03:52:01;19.70;;;7.90;;
3547;SDS011;1788;49.400;11.092;2024-01-15T03:54:28;25.30;;;10.80;;
3547;SDS011;1788;49.400;11.092;2024-01-15T03:56:55;25.43;;;9.70;;
3547;SDS011;1788;49.400;11.092;2024-01-15T03:59:21;25.93;;;10.00;;
3547;SDS011;1788;49.400;11.092;2024-01-15T04:01:49;25.47;;;10.00;;
3547;SDS011;1788;49.400;11.092;2024-01-15T04:04:15;21.87;;;10.30;;
3547;SDS011;1788;49.400;11.092;2024-01-15T04:06:42;22.27;;;11.47;;
3547;SDS011;1788;49.400;11.092;2024-01-15T04:09:09;22.97;;;8.90;;
3547;SDS011;1788;49.400;11.092;2024-01-15T04:11:36;18.43;;;9.70;;
3547;SDS011;1788;49.400;11.092;2024-01-15T04:14:03;21.00;;;11.13;;
3547;SDS011;1788;49.400;11.092;2024-01-15T04:16:29;25.07;;;9.63;;
3547;SDS011;1788;49.400;11.092;2024-01-15T04:18:56;18.33;;;9.10;;
3547;SDS011;1788;49.400;11.092;2024-01-15T04:21:22;26.50;;;10.60;;
3547;SDS011;1788;49.400;11.092;2024-01-15T04:23:50;16.43;;;8.10;;
3547;SDS011;1788;49.400;11.092;2024-01-15T04:26:16;24.23;;;10.30;;
3547;SDS011;1788;49.400;11.092;2024-01-15T04:28:43;21.40;;;10.33;;
3547;SDS011;1788;49.400;11.092;2024-01-15T04:31:10;21.03;;;8.67;;
3547;SDS011;1788;49.400;11.092;2024-01-15T04:33:36;25.67;;;10.90;;
3547;SDS011;1788;49.400;11.092;2024-01-15T04:36:04;23.80;;;9.77;;
3547;SDS011;1788;49.400;11.092;2024-01-15T04:38:31;26.23;;;10.47;;
3547;SDS011;1788;49.400;11.092;2024-01-15T04:40:57;21.73;;;9.23;;
3547;SDS011;1788;49.400;11.092;2024-01-15T04:43:24;21.60;;;10.40;;
3547;SDS011;1788;49.400;11.092;2024-01-15T04:45:51;21.53;;;10.00;;
3547;SDS011;1788;49.400;11.092;2024-01-15T04:48:17;15.83;;;8.17;;
3547;SDS011;1788;49.400;11.092;2024-01-15T04:50:44;20.13;;;8.93;;
3547;SDS011;1788;49.400;11.092;2024-01-15T04:53:10;24.80;;;10.87;;
3547;SDS011;1788;49.400;11.092;2024-01-15T04:55:37;24.43;;;10.23;;
3547;SDS011;1788;49.400;11.092;2024-01-15T04:58:04;22.17;;;9.00;;
3547;SDS011;1788;49.400;11.092;2024-01-15T05:00:30;20.33;;;8.47;;
3547;SDS011;1788;49.400;11.092;2024-01-15T05:02:57;24.53;;;9.50;;
3547;SDS011;1788;49.400;11.092;2024-01-15T05:05:24;20.37;;;8.07;;
3547;SDS011;1788;49.400;11.092;2024-01-15T05:07:51;18.80;;;8.87;;
3547;SDS011;1788;49.400;11.092;2024-01-15T05:10:18;19.13;;;9.00;;
3547;SDS011;1788;49.400;11.092;2024-01-15T05:12:45;25.10;;;9.57;;
3547;SDS011;1788;49.400;11.092;2024-01-15T05:15:12;21.50;;;9.07;;
3547;SDS011;1788;49.400;11.092;2024-01-15T05:17:39;25.70;;;11.63;;
3547;SDS011;1788;49.400;11.092;2024-01-15T05:20:06;26.13;;;9.50;;
3547;SDS011;1788;49.400;11.092;2024-01-15T05:22:32;21.60;;;10.33;;
3547;SDS011;1788;49.400;11.092;2024-01-15T05:24:59;23.13;;;10.10;;
3547;SDS011;1788;49.400;11.092;2024-01-15T05:27:25;20.87;;;10.10;;
3547;SDS011;1788;49.400;11.092;2024-01-15T05:29:53;22.70;;;9.70;;
3547;SDS011;1788;49.400;11.092;2024-01-15T05:32:20;28.03;;;12.23;;
3547;SDS011;1788;49.400;11.092;2024-01-15T05:34:46;24.90;;;11.13;;
3547;SDS011;1788;49.400;11.092;2024-01-15T05:37:13;17.70;;;8.60;;
3547;SDS011;1788;49.400;11.092;2024-01-15T05:39:40;27.03;;;11.90;;
3547;SDS011;1788;49.400;11.092;2024-01-15T05:42:07;25.93;;;11.37;;
3547;SDS011;1788;49.400;11.092;2024-01-15T05:44:34;21.37;;;9.63;;
3547;SDS011;1788;49.400;11.092;2024-01-15T05:47:00;14.43;;;7.27;;
3547;SDS011;1788;49.400;11.092;2024-01-15T05:49:27;21.10;;;8.83;;
3547;SDS011;1788;49.400;11.092;2024-01-15T05:51:54;25.30;;;11.23;;
3547;SDS011;1788;49.400;11.092;2024-01-15T05:54:21;22.93;;;9.73;;
3547;SDS011;1788;49.400;11.092;2024-01-15T05:56:48;21.33;;;8.93;;
3547;SDS011;1788;49.400;11.092;2024-01-15T05:59:14;16.00;;;7.83;;
3547;SDS011;1788;49.400;11.092;2024-01-15T06:01:41;21.27;;;8.43;;
3547;SDS011;1788;49.400;11.092;2024-01-15T06:04:07;18.17;;;8.93;;
3547;SDS011;1788;49.400;11.092;2024-01-15T06:06:35;20.90;;;10.40;;
3547;SDS011;1788;49.400;11.092;2024-01-15T06:09:01;19.63;;;8.37;;
3547;SDS011;1788;49.400;11.092;2024-01-15T06:13:55;18.53;;;8.93;;
3547;SDS011;1788;49.400;11.092;2024-01-15T06:16:21;20.90;;;9.50;;
3547;SDS011;1788;49.400;11.092;2024-01-15T06:18:48;20.67;;;9.33;;
3547;SDS011;1788;49.400;11.092;2024-01-15T06:21:15;17.97;;;8.63;;
3547;SDS011;1788;49.400;11.092;2024-01-15T06:23:41;17.80;;;8.60;;
3547;SDS011;1788;49.400;11.092;2024-01-15T06:26:09;24.00;;;9.60;;
3547;SDS011;1788;49.400;11.092;2024-01-15T06:28:35;22.57;;;9.33;;
3547;SDS011;1788;49.400;11.092;2024-01-15T06:31:02;24.40;;;10.73;;
3547;SDS011;1788;49.400;11.092;2024-01-15T06:33:28;19.53;;;9.17;;
3547;SDS011;1788;49.400;11.092;2024-01-15T06:35:55;18.23;;;8.03;;
3547;SDS011;1788;49.400;11.092;2024-01-15T06:38:22;20.03;;;10.53;;
3547;SDS011;1788;49.400;11.092;2024-01-15T06:40:48;18.90;;;8.73;;
3547;SDS011;1788;49.400;11.092;2024-01-15T06:43:15;19.83;;;8.73;;
3547;SDS011;1788;49.400;11.092;2024-01-15T06:45:41;24.50;;;10.27;;
3547;SDS011;1788;49.400;11.092;2024-01-15T06:48:08;15.97;;;9.67;;
3547;SDS011;1788;49.400;11.092;2024-01-15T06:50:35;20.70;;;9.33;;
3547;SDS011;1788;49.400;11.092;2024-01-15T06:53:01;21.27;;;8.70;;
3547;SDS011;1788;49.400;11.092;2024-01-15T06:55:28;18.47;;;8.53;;
3547;SDS011;1788;49.400;11.092;2024-01-15T06:57:55;23.10;;;10.53;;
3547;SDS011;1788;49.400;11.092;2024-01-15T07:00:22;19.77;;;9.33;;
3547;SDS011;1788;49.400;11.092;2024-01-15T07:02:48;16.17;;;8.93;;
3547;SDS011;1788;49.400;11.092;2024-01-15T07:05:15;19.77;;;8.10;;
3547;SDS011;1788;49.400;11.092;2024-01-15T07:07:42;23.03;;;9.50;;
3547;SDS011;1788;49.400;11.092;2024-01-15T07:10:09;15.73;;;7.47;;
3547;SDS011;1788;49.400;11.092;2024-01-15T07:12:36;19.90;;;9.00;;
3547;SDS011;1788;49.400;11.092;2024-01-15T07:15:02;15.80;;;8.13;;
3547;SDS011;1788;49.400;11.092;2024-01-15T07:17:29;16.47;;;8.07;;
3547;SDS011;1788;49.400;11.092;2024-01-15T07:19:55;30.50;;;11.60;;
3547;SDS011;1788;49.400;11.092;2024-01-15T07:22:23;41.40;;;19.90;;
3547;SDS011;1788;49.400;11.092;2024-01-15T07:24:49;17.63;;;9.13;;
3547;SDS011;1788;49.400;11.092;2024-01-15T07:27:17;22.50;;;9.97;;
3547;SDS011;1788;49.400;11.092;2024-01-15T07:29:43;16.93;;;8.83;;
3547;SDS011;1788;49.400;11.092;2024-01-15T07:32:10;18.40;;;8.47;;
3547;SDS011;1788;49.400;11.092;2024-01-15T07:34:37;14.27;;;7.93;;
3547;SDS011;1788;49.400;11.092;2024-01-15T07:37:03;19.10;;;8.77;;
3547;SDS011;1788;49.400;11.092;2024-01-15T07:39:31;18.87;;;10.73;;
3547;SDS011;1788;49.400;11.092;2024-01-15T07:41:57;19.07;;;9.17;;
3547;SDS011;1788;49.400;11.092;2024-01-15T07:44:25;23.70;;;10.03;;
3547;SDS011;1788;49.400;11.092;2024-01-15T07:46:51;20.10;;;8.70;;
3547;SDS011;1788;49.400;11.092;2024-01-15T07:49:18;16.63;;;9.80;;
3547;SDS011;1788;49.400;11.092;2024-01-15T07:51:44;15.83;;;8.97;;
3547;SDS011;1788;49.400;11.092;2024-01-15T07:54:11;18.10;;;8.27;;
3547;SDS011;1788;49.400;11.092;2024-01-15T07:59:05;19.27;;;9.73;;
3547;SDS011;1788;49.400;11.092;2024-01-15T08:01:32;27.50;;;13.10;;
3547;SDS011;1788;49.400;11.092;2024-01-15T08:03:58;19.93;;;10.40;;
3547;SDS011;1788;49.400;11.092;2024-01-15T08:06:25;22.17;;;10.73;;
3547;SDS011;1788;49.400;11.092;2024-01-15T08:08:52;14.67;;;9.00;;
3547;SDS011;1788;49.400;11.092;2024-01-15T08:11:19;17.13;;;8.40;;
3547;SDS011;1788;49.400;11.092;2024-01-15T08:13:46;12.03;;;8.17;;
3547;SDS011;1788;49.400;11.092;2024-01-15T08:16:13;18.70;;;8.87;;
3547;SDS011;1788;49.400;11.092;2024-01-15T08:18:41;21.27;;;9.87;;
3547;SDS011;1788;49.400;11.092;2024-01-15T08:21:06;17.07;;;7.97;;
3547;SDS011;1788;49.400;11.092;2024-01-15T08:23:34;18.77;;;8.83;;
3547;SDS011;1788;49.400;11.092;2024-01-15T08:26:00;15.83;;;8.53;;
3547;SDS011;1788;49.400;11.092;2024-01-15T08:28:27;18.53;;;9.07;;
3547;SDS011;1788;49.400;11.092;2024-01-15T08:30:54;15.83;;;6.83;;
3547;SDS011;1788;49.400;11.092;2024-01-15T08:33:21;15.53;;;7.80;;
3547;SDS011;1788;49.400;11.092;2024-01-15T08:35:47;13.17;;;7.27;;
3547;SDS011;1788;49.400;11.092;2024-01-15T08:38:14;15.53;;;8.00;;
3547;SDS011;1788;49.400;11.092;2024-01-15T08:40:40;10.37;;;6.30;;
3547;SDS011;1788;49.400;11.092;2024-01-15T08:43:07;15.17;;;8.23;;
3547;SDS011;1788;49.400;11.092;2024-01-15T08:45:34;11.93;;;6.90;;
3547;SDS011;1788;49.400;11.092;2024-01-15T08:48:01;14.17;;;8.33;;
3547;SDS011;1788;49.400;11.092;2024-01-15T08:50:28;17.23;;;9.00;;
3547;SDS011;1788;49.400;11.092;2024-01-15T08:52:54;16.43;;;7.37;;
3547;SDS011;1788;49.400;11.092;2024-01-15T08:55:21;16.50;;;7.23;;
3547;SDS011;1788;49.400;11.092;2024-01-15T08:57:48;14.37;;;7.27;;
3547;SDS011;1788;49.400;11.092;2024-01-15T09:00:15;17.30;;;7.67;;
3547;SDS011;1788;49.400;11.092;2024-01-15T09:02:42;15.50;;;8.47;;
3547;SDS011;1788;49.400;11.092;2024-01-15T09:05:08;9.90;;;6.03;;
3547;SDS011;1788;49.400;11.092;2024-01-15T09:07:35;15.67;;;7.53;;
3547;SDS011;1788;49.400;11.092;2024-01-15T09:10:01;13.90;;;7.63;;
3547;SDS011;1788;49.400;11.092;2024-01-15T09:12:28;14.77;;;6.80;;
3547;SDS011;1788;49.400;11.092;2024-01-15T09:14:55;11.90;;;7.23;;
3547;SDS011;1788;49.400;11.092;2024-01-15T09:17:21;16.03;;;7.73;;
3547;SDS011;1788;49.400;11.092;2024-01-15T09:19:48;19.03;;;8.90;;
3547;SDS011;1788;49.400;11.092;2024-01-15T09:22:15;17.20;;;9.83;;
3547;SDS011;1788;49.400;11.092;2024-01-15T09:24:41;16.10;;;8.40;;
3547;SDS011;1788;49.400;11.092;2024-01-15T09:27:08;13.37;;;8.20;;
3547;SDS011;1788;49.400;11.092;2024-01-15T09:29:34;15.27;;;7.50;;
3547;SDS011;1788;49.400;11.092;2024-01-15T09:32:01;15.70;;;10.57;;
3547;SDS011;1788;49.400;11.092;2024-01-15T09:34:28;17.00;;;8.53;;
3547;SDS011;1788;49.400;11.092;2024-01-15T09:36:54;15.03;;;7.17;;
3547;SDS011;1788;49.400;11.092;2024-01-15T09:39:21;17.87;;;8.90;;
3547;SDS011;1788;49.400;11.092;2024-01-15T09:41:47;15.50;;;7.33;;
3547;SDS011;1788;49.400;11.092;2024-01-15T09:44:14;21.43;;;11.07;;
3547;SDS011;1788;49.400;11.092;2024-01-15T09:46:41;11.27;;;7.10;;
3547;SDS011;1788;49.400;11.092;2024-01-15T09:49:07;14.37;;;8.17;;
3547;SDS011;1788;49.400;11.092;2024-01-15T09:51:34;16.90;;;9.53;;
3547;SDS011;1788;49.400;11.092;2024-01-15T09:54:00;11.67;;;7.03;;
3547;SDS011;1788;49.400;11.092;2024-01-15T09:56:28;13.50;;;6.40;;
3547;SDS011;1788;49.400;11.092;2024-01-15T09:58:54;14.73;;;10.53;;
3547;SDS011;1788;49.400;11.092;2024-01-15T10:01:22;13.73;;;8.77;;
3547;SDS011;1788;49.400;11.092;2024-01-15T10:03:49;10.30;;;6.50;;
3547;SDS011;1788;49.400;11.092;2024-01-15T10:06:16;12.63;;;6.63;;
3547;SDS011;1788;49.400;11.092;2024-01-15T10:08:43;14.43;;;7.50;;
3547;SDS011;1788;49.400;11.092;2024-01-15T10:11:09;17.43;;;6.90;;
3547;SDS011;1788;49.400;11.092;2024-01-15T10:13:36;12.17;;;6.23;;
3547;SDS011;1788;49.400;11.092;2024-01-15T10:16:03;12.30;;;6.70;;
3547;SDS011;1788;49.400;11.092;2024-01-15T10:18:30;10.83;;;6.47;;
3547;SDS011;1788;49.400;11.092;2024-01-15T10:20:57;9.53;;;6.43;;
3547;SDS011;1788;49.400;11.092;2024-01-15T10:23:24;15.07;;;7.13;;
3547;SDS011;1788;49.400;11.092;2024-01-15T10:25:50;10.63;;;6.30;;
3547;SDS011;1788;49.400;11.092;2024-01-15T10:28:17;12.27;;;6.80;;
3547;SDS011;1788;49.400;11.092;2024-01-15T10:30:44;16.77;;;8.07;;
3547;SDS011;1788;49.400;11.092;2024-01-15T10:33:10;17.20;;;7.20;;
3547;SDS011;1788;49.400;11.092;2024-01-15T10:35:37;14.00;;;7.37;;
3547;SDS011;1788;49.400;11.092;2024-01-15T10:38:05;20.03;;;8.73;;
3547;SDS011;1788;49.400;11.092;2024-01-15T10:40:30;13.13;;;6.93;;
3547;SDS011;1788;49.400;11.092;2024-01-15T10:42:58;11.80;;;6.30;;
3547;SDS011;1788;49.400;11.092;2024-01-15T10:45:24;13.03;;;7.37;;
3547;SDS011;1788;49.400;11.092;2024-01-15T10:47:51;13.20;;;6.80;;
3547;SDS011;1788;49.400;11.092;2024-01-15T10:50:17;10.60;;;6.07;;
3547;SDS011;1788;49.400;11.092;2024-01-15T10:52:44;12.50;;;6.50;;
3547;SDS011;1788;49.400;11.092;2024-01-15T10:55:11;12.50;;;7.53;;
3547;SDS011;1788;49.400;11.092;2024-01-15T10:57:38;14.93;;;7.40;;
3547;SDS011;1788;49.400;11.092;2024-01-15T11:00:05;11.50;;;7.10;;
3547;SDS011;1788;49.400;11.092;2024-01-15T11:04:59;18.40;;;7.87;;
3547;SDS011;1788;49.400;11.092;2024-01-15T11:07:25;8.20;;;5.40;;
3547;SDS011;1788;49.400;11.092;2024-01-15T11:09:52;12.87;;;6.17;;
3547;SDS011;1788;49.400;11.092;2024-01-15T11:12:19;12.87;;;7.40;;
3547;SDS011;1788;49.400;11.092;2024-01-15T11:17:13;13.03;;;7.43;;
3547;SDS011;1788;49.400;11.092;2024-01-15T11:22:07;10.20;;;6.63;;
3547;SDS011;1788;49.400;11.092;2024-01-15T11:24:34;13.37;;;7.60;;
3547;SDS011;1788;49.400;11.092;2024-01-15T11:27:00;8.30;;;4.43;;
3547;SDS011;1788;49.400;11.092;2024-01-15T11:29:29;13.27;;;6.70;;
3547;SDS011;1788;49.400;11.092;2024-01-15T11:34:20;12.87;;;7.43;;
3547;SDS011;1788;49.400;11.092;2024-01-15T11:41:40;10.77;;;6.83;;
3547;SDS011;1788;49.400;11.092;2024-01-15T11:44:07;12.90;;;7.67;;
3547;SDS011;1788;49.400;11.092;2024-01-15T11:46:33;15.30;;;7.87;;
3547;SDS011;1788;49.400;11.092;2024-01-15T11:49:03;11.27;;;6.53;;
3547;SDS011;1788;49.400;11.092;2024-01-15T11:51:27;14.90;;;7.57;;
3547;SDS011;1788;49.400;11.092;2024-01-15T11:53:54;13.13;;;7.70;;
3547;SDS011;1788;49.400;11.092;2024-01-15T11:56:20;16.67;;;8.23;;
3547;SDS011;1788;49.400;11.092;2024-01-15T11:58:47;11.53;;;6.53;;
3547;SDS011;1788;49.400;11.092;2024-01-15T12:01:15;15.27;;;6.57;;
3547;SDS011;1788;49.400;11.092;2024-01-15T12:03:41;13.77;;;7.70;;
3547;SDS011;1788;49.400;11.092;2024-01-15T12:06:08;13.93;;;6.53;;
3547;SDS011;1788;49.400;11.092;2024-01-15T12:08:34;14.13;;;6.50;;
3547;SDS011;1788;49.400;11.092;2024-01-15T12:11:04;13.23;;;7.43;;
3547;SDS011;1788;49.400;11.092;2024-01-15T12:13:28;12.83;;;7.60;;
3547;SDS011;1788;49.400;11.092;2024-01-15T12:15:55;9.43;;;5.57;;
3547;SDS011;1788;49.400;11.092;2024-01-15T12:18:22;9.23;;;6.43;;
3547;SDS011;1788;49.400;11.092;2024-01-15T12:20:48;11.57;;;7.70;;
3547;SDS011;1788;49.400;11.092;2024-01-15T12:23:15;12.17;;;7.20;;
3547;SDS011;1788;49.400;11.092;2024-01-15T12:25:42;11.50;;;6.37;;
3547;SDS011;1788;49.400;11.092;2024-01-15T12:28:09;11.73;;;7.00;;
3547;SDS011;1788;49.400;11.092;2024-01-15T12:30:35;8.63;;;7.13;;
3547;SDS011;1788;49.400;11.092;2024-01-15T12:33:02;14.00;;;7.57;;
3547;SDS011;1788;49.400;11.092;2024-01-15T12:35:29;7.93;;;6.33;;
3547;SDS011;1788;49.400;11.092;2024-01-15T12:37:55;12.70;;;6.53;;
3547;SDS011;1788;49.400;11.092;2024-01-15T12:40:22;12.73;;;7.33;;
3547;SDS011;1788;49.400;11.092;2024-01-15T12:42:49;11.30;;;6.03;;
3547;SDS011;1788;49.400;11.092;2024-01-15T12:45:15;10.87;;;5.83;;
3547;SDS011;1788;49.400;11.092;2024-01-15T12:47:42;11.43;;;6.97;;
3547;SDS011;1788;49.400;11.092;2024-01-15T12:50:09;12.93;;;6.93;;
3547;SDS011;1788;49.400;11.092;2024-01-15T12:52:35;12.83;;;7.07;;
3547;SDS011;1788;49.400;11.092;2024-01-15T12:55:01;10.13;;;5.97;;
3547;SDS011;1788;49.400;11.092;2024-01-15T12:57:29;11.57;;;6.53;;
3547;SDS011;1788;49.400;11.092;2024-01-15T12:59:55;10.83;;;6.50;;
3547;SDS011;1788;49.400;11.092;2024-01-15T13:02:23;13.23;;;10.23;;
3547;SDS011;1788;49.400;11.092;2024-01-15T13:04:49;13.77;;;8.30;;
3547;SDS011;1788;49.400;11.092;2024-01-15T13:07:16;7.43;;;6.07;;
3547;SDS011;1788;49.400;11.092;2024-01-15T13:09:43;8.93;;;7.00;;
3547;SDS011;1788;49.400;11.092;2024-01-15T13:12:10;10.37;;;6.27;;
3547;SDS011;1788;49.400;11.092;2024-01-15T13:14:36;12.83;;;8.33;;
3547;SDS011;1788;49.400;11.092;2024-01-15T13:17:03;8.73;;;6.60;;
3547;SDS011;1788;49.400;11.092;2024-01-15T13:19:30;13.83;;;9.23;;
3547;SDS011;1788;49.400;11.092;2024-01-15T13:21:58;13.60;;;6.40;;
3547;SDS011;1788;49.400;11.092;2024-01-15T13:24:24;9.03;;;5.13;;
3547;SDS011;1788;49.400;11.092;2024-01-15T13:26:51;13.10;;;6.60;;
3547;SDS011;1788;49.400;11.092;2024-01-15T13:29:18;12.77;;;7.90;;
3547;SDS011;1788;49.400;11.092;2024-01-15T13:31:44;11.97;;;6.87;;
3547;SDS011;1788;49.400;11.092;2024-01-15T13:34:12;9.97;;;6.03;;
3547;SDS011;1788;49.400;11.092;2024-01-15T13:36:39;9.37;;;5.77;;
3547;SDS011;1788;49.400;11.092;2024-01-15T13:39:06;12.10;;;7.23;;
3547;SDS011;1788;49.400;11.092;2024-01-15T13:41:32;8.70;;;5.57;;
3547;SDS011;1788;49.400;11.092;2024-01-15T13:43:59;10.53;;;6.60;;
3547;SDS011;1788;49.400;11.092;2024-01-15T13:46:25;11.73;;;5.93;;
3547;SDS011;1788;49.400;11.092;2024-01-15T13:48:52;11.63;;;7.17;;
3547;SDS011;1788;49.400;11.092;2024-01-15T13:51:21;12.80;;;7.13;;
3547;SDS011;1788;49.400;11.092;2024-01-15T13:53:46;15.30;;;8.93;;
3547;SDS011;1788;49.400;11.092;2024-01-15T13:56:13;11.63;;;6.87;;
3547;SDS011;1788;49.400;11.092;2024-01-15T13:58:39;11.33;;;5.90;;
3547;SDS011;1788;49.400;11.092;2024-01-15T14:01:06;17.20;;;7.13;;
3547;SDS011;1788;49.400;11.092;2024-01-15T14:03:34;8.43;;;5.57;;
3547;SDS011;1788;49.400;11.092;2024-01-15T14:06:00;11.90;;;6.20;;
3547;SDS011;1788;49.400;11.092;2024-01-15T14:08:27;9.43;;;5.73;;
3547;SDS011;1788;49.400;11.092;2024-01-15T14:10:54;13.30;;;6.83;;
3547;SDS011;1788;49.400;11.092;2024-01-15T14:13:22;12.10;;;6.97;;
3547;SDS011;1788;49.400;11.092;2024-01-15T14:15:48;11.33;;;6.40;;
3547;SDS011;1788;49.400;11.092;2024-01-15T14:18:16;14.87;;;8.53;;
3547;SDS011;1788;49.400;11.092;2024-01-15T14:20:42;13.40;;;7.40;;
3547;SDS011;1788;49.400;11.092;2024-01-15T14:23:08;9.40;;;5.80;;
3547;SDS011;1788;49.400;11.092;2024-01-15T14:25:35;12.57;;;6.60;;
3547;SDS011;1788;49.400;11.092;2024-01-15T14:28:02;10.60;;;6.83;;
3547;SDS011;1788;49.400;11.092;2024-01-15T14:30:29;9.83;;;5.83;;
3547;SDS011;1788;49.400;11.092;2024-01-15T14:32:56;9.27;;;5.37;;
3547;SDS011;1788;49.400;11.092;2024-01-15T14:35:22;12.00;;;7.20;;
3547;SDS011;1788;49.400;11.092;2024-01-15T14:37:49;13.63;;;6.80;;
3547;SDS011;1788;49.400;11.092;2024-01-15T14:40:16;16.97;;;7.60;;
3547;SDS011;1788;49.400;11.092;2024-01-15T14:42:43;11.63;;;6.90;;
3547;SDS011;1788;49.400;11.092;2024-01-15T14:45:09;10.33;;;5.80;;
3547;SDS011;1788;49.400;11.092;2024-01-15T14:47:36;12.70;;;7.27;;
3547;SDS011;1788;49.400;11.092;2024-01-15T14:50:03;6.67;;;5.20;;
3547;SDS011;1788;49.400;11.092;2024-01-15T14:52:29;13.73;;;6.33;;
3547;SDS011;1788;49.400;11.092;2024-01-15T14:54:56;14.30;;;7.67;;
3547;SDS011;1788;49.400;11.092;2024-01-15T14:57:23;10.80;;;6.40;;
3547;SDS011;1788;49.400;11.092;2024-01-15T14:59:50;8.83;;;6.50;;